Flight Track Log - Related Links

Times and Time Zones

All times are in EDT time to prevent confusion due to time zone crossing. See the FIV521 flight status page for this flight to view local times or setup timezone preferences in your user account.

Time Position Orientation Groundspeed Altitude Reporting Facility
EDT Latitude Longitude Course Direction KTS MPH feet Rate Location/Type
Sun 02:11:39 PM 27.1744 -80.1908 North 151 174 1,800  Level Miami Center
Sun 02:12:39 PM 27.2117 -80.2058 340° North 168 193 3,900 2,500 Climbing Miami Center
Sun 02:13:39 PM 27.2375 -80.2628 297° West 153 176 6,800 2,350 Climbing Miami Center
Sun 02:14:39 PM 27.3053 -80.3019 333° Northwest 227 261 8,600 2,050 Climbing Miami Center
Sun 02:15:39 PM 27.3800 -80.3278 343° North 264 304 10,900 2,150 Climbing Miami Center
Sun 02:16:39 PM 27.4608 -80.3511 346° North 291 335 12,900 1,950 Climbing Miami Center
Sun 02:17:00 PM 27.5981 -80.5000 North  Level FlightAware Approximate
Sun 02:17:39 PM 27.5383 -80.3442 North 304 350 14,800  Level Miami Center
Sun 02:18:39 PM 27.6336 -80.2883 27° Northeast 329 379 16,000 600 Climbing Miami Center
Sun 02:19:39 PM 27.7308 -80.2375 25° Northeast 363 418 16,000 50 Level Miami Center
Sun 02:20:39 PM 27.8281 -80.1864 25° Northeast 375 432 16,100 950 Climbing Miami Center
Sun 02:21:39 PM 27.9106 -80.1369 28° Northeast 376 433 17,900 2,000 Climbing Miami Center
Sun 02:22:39 PM 28.0011 -80.0925 23° Northeast 363 418 20,100 2,500 Climbing Miami Center
Sun 02:23:39 PM 28.0964 -80.0389 26° Northeast 344 396 22,900 2,350 Climbing Miami Center
Sun 02:24:39 PM 28.1808 -79.9894 27° Northeast 344 396 24,800 1,700 Climbing Miami Center
Sun 02:25:39 PM 28.2675 -79.9375 28° Northeast 344 396 26,300 1,500 Climbing Miami Center
Sun 02:26:39 PM 28.3486 -79.8525 43° Northeast 363 418 27,800 1,400 Climbing Miami Center
Sun 02:27:39 PM 28.4256 -79.7650 45° Northeast 380 437 29,100 1,350 Climbing Miami Center
Sun 02:28:39 PM 28.5047 -79.6725 46° Northeast 392 451 30,500 1,450 Climbing Miami Center
Sun 02:29:39 PM 28.5836 -79.5797 46° Northeast 403 464 32,000 1,750 Climbing Miami Center
Sun 02:30:39 PM 28.6625 -79.4919 44° Northeast 403 464 34,000 1,500 Climbing Miami Center
Sun 02:31:39 PM 28.7392 -79.4061 44° Northeast 387 445 35,000 1,000 Climbing Miami Center
Sun 02:32:39 PM 28.8181 -79.3156 45° Northeast 387 445 36,000 1,250 Climbing Miami Center
Sun 02:33:39 PM 28.8925 -79.2247 47° Northeast 387 445 37,500 1,350 Climbing Miami Center
Sun 02:34:39 PM 28.9711 -79.1386 44° Northeast 387 445 38,700 750 Climbing Miami Center
Sun 02:35:39 PM 29.0458 -79.0453 48° Northeast 392 451 39,000 150 Climbing Miami Center
Sun 02:36:39 PM 29.1347 -78.9519 43° Northeast 402 463 39,000  Level Miami Center
Sun 02:37:39 PM 29.2197 -78.8514 46° Northeast 420 483 39,000  Level Miami Center
Sun 02:38:39 PM 29.3044 -78.7433 48° Northeast 435 501 39,000  Level Miami Center
Sun 02:41:08 PM 29.5772 -78.6231 21° North 422 486 39,000  Level Jacksonville Center
Sun 02:42:08 PM 29.6928 -78.5869 15° North 427 491 39,000  Level Jacksonville Center
Sun 02:43:09 PM 29.8003 -78.5511 16° North 435 501 39,000  Level Jacksonville Center
Sun 02:44:08 PM 29.9200 -78.5147 15° North 435 501 39,000  Level Jacksonville Center
Sun 02:45:08 PM 30.0333 -78.4736 17° North 429 494 39,000  Level Jacksonville Center
Sun 02:46:08 PM 30.1511 -78.4344 16° North 429 494 39,000  Level Jacksonville Center
Sun 02:47:08 PM 30.2772 -78.4000 13° North 429 494 39,000  Level Jacksonville Center
Sun 02:48:08 PM 30.3967 -78.3606 16° North 429 494 39,000  Level Jacksonville Center
Sun 02:49:08 PM 30.5164 -78.3236 15° North 434 499 39,000  Level Jacksonville Center
Sun 02:50:08 PM 30.6339 -78.2817 17° North 439 505 39,000  Level Jacksonville Center
Sun 02:51:08 PM 30.7578 -78.2419 15° North 443 510 39,000  Level Jacksonville Center
Sun 02:52:08 PM 30.8817 -78.2042 15° North 443 510 39,000  Level Jacksonville Center
Sun 02:53:08 PM 30.9928 -78.1647 17° North 443 510 39,000  Level Jacksonville Center
Sun 02:54:08 PM 31.1164 -78.1197 17° North 443 510 39,000  Level Jacksonville Center
Sun 02:55:08 PM 31.2336 -78.0750 18° North 443 510 39,000  Level Jacksonville Center
Sun 02:56:08 PM 31.3533 -78.0372 15° North 443 510 39,000  Level Jacksonville Center
Sun 02:57:08 PM 31.4772 -77.9992 15° North 448 516 39,000  Level Jacksonville Center
Sun 02:58:08 PM 31.5964 -77.9561 17° North 448 516 39,000  Level Jacksonville Center
Sun 02:59:08 PM 31.7183 -77.9228 13° North 448 516 39,000  Level Jacksonville Center
Sun 03:00:08 PM 31.8419 -77.8794 17° North 448 516 39,000 350 Level Jacksonville Center
Sun 03:01:08 PM 31.9614 -77.8389 16° North 448 516 39,700 900 Climbing Jacksonville Center
Sun 03:02:08 PM 32.0767 -77.8006 16° North 448 516 40,800 650 Climbing Jacksonville Center
Sun 03:03:08 PM 32.1961 -77.7572 17° North 443 510 41,000 100 Climbing Jacksonville Center
Sun 03:04:08 PM 32.3156 -77.7186 15° North 443 510 41,000  Level Jacksonville Center
Sun 03:05:08 PM 32.4350 -77.6797 15° North 443 510 41,000  Level Jacksonville Center
Sun 03:06:08 PM 32.5583 -77.6356 17° North 448 516 41,000  Level Jacksonville Center
Sun 03:07:08 PM 32.6797 -77.5964 15° North 448 516 41,000  Level Jacksonville Center
Sun 03:08:08 PM 32.8033 -77.5547 16° North 448 516 41,000  Level Jacksonville Center
Sun 03:10:29 PM 33.0767 -77.4600 16° North 460 529 41,000  Level Washington Center
Sun 03:11:29 PM 33.2006 -77.4156 17° North 460 529 41,000  Level Washington Center
Sun 03:12:29 PM 33.3242 -77.3736 16° North 460 529 41,000  Level Washington Center
Sun 03:13:29 PM 33.4478 -77.3289 17° North 460 529 41,000  Level Washington Center
Sun 03:14:29 PM 33.5758 -77.2867 15° North 460 529 41,000  Level Washington Center
Sun 03:15:29 PM 33.6972 -77.2442 16° North 466 536 41,000  Level Washington Center
Sun 03:16:29 PM 33.8208 -77.2017 16° North 461 531 41,000  Level Washington Center
Sun 03:17:29 PM 33.9592 -77.1519 17° North 461 531 41,000  Level Washington Center
Sun 03:18:29 PM 34.0808 -77.1089 16° North 461 531 41,000  Level Washington Center
Sun 03:19:29 PM 34.2044 -77.0661 16° North 461 531 41,000  Level Washington Center
Sun 03:20:29 PM 34.3303 -77.0231 16° North 461 531 41,000  Level Washington Center
Sun 03:21:29 PM 34.4517 -76.9747 18° North 461 531 41,000  Level Washington Center
Sun 03:22:29 PM 34.5753 -76.9339 15° North 461 531 41,000  Level Washington Center
Sun 03:23:29 PM 34.6967 -76.8906 16° North 461 531 41,000  Level Washington Center
Sun 03:24:29 PM 34.8203 -76.8469 16° North 461 531 41,000  Level Washington Center
Sun 03:25:29 PM 34.9439 -76.8033 16° North 461 531 41,000  Level Washington Center
Sun 03:26:29 PM 35.0653 -76.7569 17° North 461 531 41,000  Level Washington Center
Sun 03:27:29 PM 35.1783 -76.7153 17° North 461 531 41,000  Level Washington Center
Sun 03:28:29 PM 35.3000 -76.6686 17° North 456 525 41,000  Level Washington Center
Sun 03:29:29 PM 35.4339 -76.6219 16° North 461 531 41,000  Level Washington Center
Sun 03:30:29 PM 35.5553 -76.5750 17° North 461 531 41,000  Level Washington Center
Sun 03:31:29 PM 35.6808 -76.5331 15° North 461 531 41,000  Level Washington Center
Sun 03:32:29 PM 35.8064 -76.4858 17° North 461 531 41,000  Level Washington Center
Sun 03:33:29 PM 35.9278 -76.4386 17° North 461 531 41,000  Level Washington Center
Sun 03:34:29 PM 36.0533 -76.3911 17° North 461 531 41,000  Level Washington Center
Sun 03:35:29 PM 36.1808 -76.3461 16° North 461 531 41,000  Level Washington Center
Sun 03:36:29 PM 36.3042 -76.3008 16° North 461 531 41,000  Level Washington Center
Sun 03:37:29 PM 36.4297 -76.2528 17° North 461 531 41,000  Level Washington Center
Sun 03:38:29 PM 36.5572 -76.2075 16° North 461 531 41,000  Level Washington Center
Sun 03:39:29 PM 36.6806 -76.1617 17° North 461 531 41,000  Level Washington Center
Sun 03:40:29 PM 36.7933 -76.1133 19° North 461 531 41,000  Level Washington Center
Sun 03:41:29 PM 36.9186 -76.0672 16° North 461 531 41,000  Level Washington Center
Sun 03:42:29 PM 37.0608 -76.0161 16° North 474 545 41,000  Level Washington Center
Sun 03:43:29 PM 37.1861 -75.9700 16° North 474 545 41,000  Level Washington Center
Sun 03:44:29 PM 37.3133 -75.9208 17° North 474 545 41,000  Level Washington Center
Sun 03:45:29 PM 37.4367 -75.8744 17° North 474 545 41,000  Level Washington Center
Sun 03:46:29 PM 37.5639 -75.8225 18° North 474 545 41,000  Level Washington Center
Sun 03:47:29 PM 37.6892 -75.7728 17° North 474 545 41,000  Level Washington Center
Sun 03:48:29 PM 37.8164 -75.7258 16° North 474 545 41,000  Level Washington Center
Sun 03:49:29 PM 37.9417 -75.6761 17° North 474 545 41,000  Level Washington Center
Sun 03:50:29 PM 38.0647 -75.6208 19° North 474 545 41,000  Level Washington Center
Sun 03:51:29 PM 38.1919 -75.5733 16° North 474 545 41,000  Level Washington Center
Sun 03:52:29 PM 38.2942 -75.5308 18° North 474 545 41,000  Level Washington Center
Sun 03:53:29 PM 38.4336 -75.4778 17° North 474 545 41,000  Level Washington Center
Sun 03:54:29 PM 38.5608 -75.4192 20° North 479 551 41,000  Level Washington Center
Sun 03:55:29 PM 38.6900 -75.3708 16° North 479 551 41,000  Level Washington Center
Sun 03:56:29 PM 38.8169 -75.3200 17° North 479 551 41,000 -450 Level Washington Center
Sun 03:57:29 PM 38.9356 -75.2394 28° Northeast 479 551 40,100 -1,150 Descending Washington Center
Sun 03:58:29 PM 39.0458 -75.1400 35° Northeast 479 551 38,700 -1,450 Descending Washington Center
Sun 03:59:29 PM 39.1600 -75.0347 36° Northeast 489 563 37,200 -850 Descending Washington Center
Sun 04:00:29 PM 39.2761 -74.9319 34° Northeast 495 570 37,000 -100 Descending Washington Center
Sun 04:01:29 PM 39.3903 -74.8289 35° Northeast 495 570 37,000  Level Washington Center
Sun 04:02:29 PM 39.5019 -74.7228 36° Northeast 495 570 37,000  Level Washington Center
Sun 04:03:29 PM 39.6158 -74.6192 35° Northeast 495 570 37,000  Level Washington Center
Sun 04:04:29 PM 39.7275 -74.5150 36° Northeast 500 575 37,000  Level Washington Center
Sun 04:06:18 PM 39.9186 -74.3164 39° Northeast 496 571 37,000 -467 Level New York Center
Sun 04:07:16 PM 40.0222 -74.1969 41° Northeast 490 564 35,700 -1,563 Descending New York Center
Sun 04:08:17 PM 40.1258 -74.0744 42° Northeast 495 570 33,900 -1,412 Descending New York Center
Sun 04:09:15 PM 40.2331 -73.9575 40° Northeast 500 575 32,900 -864 Descending New York Center
Sun 04:10:15 PM 40.3364 -73.8369 42° Northeast 500 575 32,200 -1,821 Descending New York Center
Sun 04:12:03 PM 40.5228 -73.6167 42° Northeast 499 574 27,800 -2,429 Descending Boston Center
Sun 04:13:03 PM 40.6178 -73.5117 40° Northeast 499 574 25,400 -2,400 Descending Boston Center
Sun 04:14:03 PM 40.7336 -73.3658 44° Northeast 492 566 23,000 -1,200 Descending Boston Center
Sun 04:15:03 PM 40.8344 -73.2547 40° Northeast 479 551 23,000 -250 Level Boston Center
Sun 04:16:03 PM 40.9311 -73.1489 40° Northeast 467 537 22,500 -1,250 Descending Boston Center
Sun 04:17:03 PM 41.0233 -73.0369 42° Northeast 455 524 20,500 -2,050 Descending Boston Center
Sun 04:18:03 PM 41.1136 -72.9306 42° Northeast 443 510 18,400 -1,800 Descending Boston Center
Sun 04:19:03 PM 41.1994 -72.8319 41° Northeast 426 490 16,900 -1,650 Descending Boston Center
Sun 04:20:03 PM 41.2725 -72.7439 42° Northeast 405 466 15,100 -1,800 Descending Boston Center
Sun 04:21:03 PM 41.3686 -72.6697 30° Northeast 366 421 13,300 -1,000 Descending Boston Center
Sun 04:22:03 PM 41.4542 -72.6339 17° North 351 404 13,100 -150 Descending Boston Center
Sun 04:23:03 PM 41.5561 -72.5872 19° North 346 398 13,000  Descending Boston Center
Sun 04:24:03 PM 41.6314 -72.5150 36° Northeast 346 398 13,100 50 Climbing Boston Center
Sun 04:25:03 PM 41.7169 -72.4233 39° Northeast 358 412 13,100 -650 Level Boston Center
Sun 04:26:03 PM 41.7981 -72.3456 36° Northeast 363 418 11,800 -1,050 Descending Boston Center
Sun 04:27:03 PM 41.8750 -72.2644 38° Northeast 352 405 11,000 -560 Descending Boston Center
Sun 04:27:18 PM 41.8917 -72.2506 32° Northeast 340 391 11,100 -800 Climbing Boston Center
Sun 04:28:03 PM 41.9478 -72.1917 38° Northeast 338 389 10,200 -896 Descending Boston Center
Sun 04:28:25 PM 41.9728 -72.1664 37° Northeast 335 386 10,100 -400 Descending Boston Center
Sun 04:29:03 PM 42.0186 -72.1186 38° Northeast 326 375 9,800 -889 Descending Boston Center
Sun 04:29:19 PM 42.0331 -72.0992 45° Northeast 296 341 9,300 -1,600 Descending Boston Center
Sun 04:30:03 PM 42.0767 -72.0569 36° Northeast 283 326 8,200 -1,452 Descending Boston Center
Sun 04:30:21 PM 42.0933 -72.0400 37° Northeast 266 306 7,800 -1,400 Descending Boston Center
Sun 04:31:03 PM 42.1328 -71.9978 38° Northeast 261 300 6,800 -1,600 Descending Boston Center
Sun 04:31:21 PM 42.1514 -71.9808 34° Northeast 254 292 6,200 -1,600 Descending Boston Center
Sun 04:32:03 PM 42.1867 -71.9358 43° Northeast 251 289 5,200 -1,000 Descending Boston Center
Sun 04:33:03 PM 42.2197 -71.8625 59° Northeast 256 295 4,500 -550 Descending Boston Center
Sun 04:34:03 PM 42.2547 -71.7808 60° Northeast 231 266 4,100 -200 Descending Boston Center
Sun 04:35:03 PM 42.2875 -71.7106 58° Northeast 231 266 4,100 -50 Level Boston Center
Sun 04:36:03 PM 42.3414 -71.6481 41° Northeast 236 272 4,000  Descending Boston Center
Sun 04:37:03 PM 42.3889 -71.5967 39° Northeast 236 272 4,100 -466 Climbing Boston Center
Sun 04:37:59 PM 42.4500 -71.5333 37° Northeast 236 272 3,100 -517 Descending KA90
Sun 04:38:59 PM 42.4833 -71.4833 48° Northeast 227 261 3,100 -100 Level KA90
Sun 04:39:59 PM 42.5000 -71.4000 75° East 223 257 2,900 -353 Descending KA90
Sun 04:40:58 PM 42.5000 -71.3167 90° East 215 247 2,400 -403 Descending KA90
Sun 04:41:58 PM 42.5167 -71.2500 71° East 182 209 2,100 -397 Descending KA90
Sun 04:42:59 PM 42.4833 -71.2167 144° Southeast 141 162 1,600 -744 Descending KA90
Sun 04:43:59 PM 42.4667 -71.2500 236° Southwest 135 155 600 -1,000 Descending KA90

Login

Don't have an account? Register now (free) for customized features, flight alerts, and more!